Time;durP1;ratioP1;P1;durP2;ratioP2;P2;SDS_P1;SDS_P2;PMS_P1;PMS_P2;Temp;Humidity;BMP_temperature;BMP_pressure;BME280_temperature;BME280_humidity;BME280_pressure;Samples;Min_cycle;Max_cycle;Signal;HPM_P1;HPM_P2
2022/08/08 00:01:53;;;;;;;13.77;9.35;;;;;;;;;;4920828;28;20047;-83
2022/08/08 00:04:22;;;;;;;13.18;10.43;;;;;;;;;;5049190;28;20027;-83
2022/08/08 00:06:59;;;;;;;13.57;9.25;;;;;;;;;;4971359;28;20076;-83
2022/08/08 00:09:25;;;;;;;13.57;9.63;;;;;;;;;;5035295;28;20659;-84
2022/08/08 00:11:55;;;;;;;18.10;10.07;;;;;;;;;;4968760;28;20510;-84
2022/08/08 00:14:39;;;;;;;18.27;9.98;;;;;;;;;;4965514;28;20114;-83
2022/08/08 00:17:09;;;;;;;19.98;10.25;;;;;;;;;;4966666;28;20019;-82
2022/08/08 00:19:47;;;;;;;15.20;10.43;;;;;;;;;;4967648;28;20023;-83
2022/08/08 00:22:36;;;;;;;14.77;11.32;;;;;;;;;;5051292;28;20030;-83
2022/08/08 00:25:04;;;;;;;17.33;10.73;;;;;;;;;;5043178;28;20045;-83
2022/08/08 00:27:31;;;;;;;15.27;11.35;;;;;;;;;;5039286;28;20125;-83
2022/08/08 00:30:01;;;;;;;16.90;11.77;;;;;;;;;;4966354;28;20031;-84
2022/08/08 00:32:35;;;;;;;16.37;11.37;;;;;;;;;;4970443;28;20487;-83
2022/08/08 00:35:11;;;;;;;18.73;12.38;;;;;;;;;;4962627;28;20080;-83
2022/08/08 00:37:55;;;;;;;20.17;13.32;;;;;;;;;;4968007;28;20019;-83
2022/08/08 00:40:24;;;;;;;16.75;11.73;;;;;;;;;;4966408;28;20034;-83
2022/08/08 00:42:53;;;;;;;18.33;13.15;;;;;;;;;;4963721;28;20736;-84
2022/08/08 00:45:35;;;;;;;20.23;13.27;;;;;;;;;;5047774;28;20037;-83
2022/08/08 00:48:20;;;;;;;18.90;13.82;;;;;;;;;;4967196;28;20061;-83
2022/08/08 00:50:49;;;;;;;22.38;14.02;;;;;;;;;;5035715;28;20488;-83
2022/08/08 00:53:24;;;;;;;20.23;13.77;;;;;;;;;;4966213;28;20371;-83
2022/08/08 00:56:24;;;;;;;21.42;14.40;;;;;;;;;;5046687;28;20038;-83
2022/08/08 00:59:10;;;;;;;23.00;13.80;;;;;;;;;;4962290;28;20023;-83
2022/08/08 01:01:47;;;;;;;19.70;13.77;;;;;;;;;;4968042;28;20459;-83
2022/08/08 01:04:13;;;;;;;20.05;12.75;;;;;;;;;;4964347;28;20400;-82
2022/08/08 01:06:58;;;;;;;18.13;11.60;;;;;;;;;;4965580;28;20438;-83
2022/08/08 01:09:33;;;;;;;15.65;11.32;;;;;;;;;;5027633;28;20037;-82
2022/08/08 01:12:18;;;;;;;18.17;11.65;;;;;;;;;;4963113;28;20034;-83
2022/08/08 01:15:02;;;;;;;18.60;12.00;;;;;;;;;;4963168;28;20030;-84
2022/08/08 01:17:28;;;;;;;18.90;10.45;;;;;;;;;;4947227;28;20527;-82
2022/08/08 01:20:13;;;;;;;18.70;11.60;;;;;;;;;;5035657;28;20301;-83
2022/08/08 01:22:58;;;;;;;20.63;12.38;;;;;;;;;;4966201;28;20062;-83
2022/08/08 01:25:42;;;;;;;13.85;11.25;;;;;;;;;;4966608;28;20034;-83
2022/08/08 01:28:27;;;;;;;10.70;9.02;;;;;;;;;;4969498;28;20035;-83
2022/08/08 01:31:11;;;;;;;12.02;9.95;;;;;;;;;;4967726;28;20438;-83
2022/08/08 01:33:57;;;;;;;14.57;10.25;;;;;;;;;;4961989;28;20034;-83
2022/08/08 01:36:23;;;;;;;13.50;10.80;;;;;;;;;;4968776;28;20541;-83
2022/08/08 01:39:12;;;;;;;16.30;12.82;;;;;;;;;;4951026;28;20046;-83
2022/08/08 01:41:47;;;;;;;16.98;12.43;;;;;;;;;;4970584;28;20039;-83
2022/08/08 01:44:13;;;;;;;18.05;14.13;;;;;;;;;;4986982;28;20480;-83
2022/08/08 01:46:50;;;;;;;18.40;13.50;;;;;;;;;;4968257;28;20034;-84
2022/08/08 01:49:43;;;;;;;19.13;14.00;;;;;;;;;;4949205;28;20038;-83
2022/08/08 01:52:24;;;;;;;21.83;14.63;;;;;;;;;;4962626;28;20019;-83
2022/08/08 01:55:12;;;;;;;25.02;15.45;;;;;;;;;;4981404;28;20027;-83
2022/08/08 01:57:49;;;;;;;23.42;15.93;;;;;;;;;;4952501;28;20030;-83
2022/08/08 02:00:21;;;;;;;18.02;13.50;;;;;;;;;;4969000;28;20125;-83
2022/08/08 02:03:01;;;;;;;18.67;12.57;;;;;;;;;;4964985;28;20039;-83
2022/08/08 02:05:30;;;;;;;21.98;15.07;;;;;;;;;;4950787;28;20069;-83
2022/08/08 02:08:00;;;;;;;18.98;11.55;;;;;;;;;;4965806;28;20027;-83
2022/08/08 02:10:26;;;;;;;16.13;12.40;;;;;;;;;;4950338;28;20052;-83
2022/08/08 02:12:55;;;;;;;16.60;11.70;;;;;;;;;;4969655;28;20076;-83
2022/08/08 02:15:29;;;;;;;15.05;11.32;;;;;;;;;;5029526;28;20067;-83
2022/08/08 02:17:59;;;;;;;16.00;11.20;;;;;;;;;;4960574;28;20026;-83
2022/08/08 02:20:38;;;;;;;15.50;11.45;;;;;;;;;;4965310;28;20045;-83
2022/08/08 02:23:13;;;;;;;19.35;12.20;;;;;;;;;;4963575;28;20376;-83
2022/08/08 02:25:39;;;;;;;15.40;12.27;;;;;;;;;;4966756;28;20035;-83
2022/08/08 02:28:08;;;;;;;18.15;13.45;;;;;;;;;;5029683;28;20041;-83
2022/08/08 02:30:34;;;;;;;15.93;11.52;;;;;;;;;;4964216;28;20027;-83
2022/08/08 02:33:13;;;;;;;19.52;12.05;;;;;;;;;;4962393;28;20057;-83
2022/08/08 02:35:42;;;;;;;18.00;13.43;;;;;;;;;;4968774;28;20035;-83
2022/08/08 02:38:23;;;;;;;20.48;13.10;;;;;;;;;;4947981;28;20054;-83
2022/08/08 02:41:08;;;;;;;20.75;12.52;;;;;;;;;;4963936;28;20023;-83
2022/08/08 02:43:54;;;;;;;14.52;11.55;;;;;;;;;;5030815;28;20050;-84
2022/08/08 02:46:20;;;;;;;17.25;13.48;;;;;;;;;;4939545;28;20408;-82
2022/08/08 02:49:05;;;;;;;20.92;12.85;;;;;;;;;;4958662;28;20027;-84
2022/08/08 02:51:56;;;;;;;20.98;12.82;;;;;;;;;;4950585;28;20574;-83
2022/08/08 02:54:41;;;;;;;17.55;12.40;;;;;;;;;;4960759;28;20046;-83
2022/08/08 02:57:26;;;;;;;15.95;12.43;;;;;;;;;;4959711;28;20039;-82
2022/08/08 03:00:01;;;;;;;14.32;11.07;;;;;;;;;;4960081;28;20038;-83
2022/08/08 03:02:36;;;;;;;18.88;13.93;;;;;;;;;;4966079;28;20046;-83
2022/08/08 03:05:04;;;;;;;15.45;12.35;;;;;;;;;;5048272;28;20126;-83
2022/08/08 03:07:51;;;;;;;19.08;14.18;;;;;;;;;;4959790;28;20031;-83
2022/08/08 03:10:23;;;;;;;20.63;13.43;;;;;;;;;;4962254;28;20035;-83
2022/08/08 03:12:52;;;;;;;17.42;12.45;;;;;;;;;;4962988;28;20035;-84
2022/08/08 03:15:21;;;;;;;18.75;13.10;;;;;;;;;;5031975;28;20038;-83
2022/08/08 03:17:47;;;;;;;23.15;17.38;;;;;;;;;;4964803;28;20055;-84
2022/08/08 03:20:14;;;;;;;21.67;16.23;;;;;;;;;;5033717;28;20446;-83
2022/08/08 03:22:45;;;;;;;23.55;17.17;;;;;;;;;;4964095;28;20030;-83
2022/08/08 03:25:13;;;;;;;23.10;17.70;;;;;;;;;;4963314;28;20055;-83
2022/08/08 03:27:58;;;;;;;23.25;17.30;;;;;;;;;;4969642;28;20046;-83
2022/08/08 03:30:25;;;;;;;23.02;17.67;;;;;;;;;;4967191;28;20031;-83
2022/08/08 03:35:38;;;;;;;25.83;17.73;;;;;;;;;;4965968;28;20096;-83
2022/08/08 03:38:04;;;;;;;21.52;16.85;;;;;;;;;;4967344;28;20089;-86
2022/08/08 03:40:30;;;;;;;25.80;19.70;;;;;;;;;;5036145;28;20035;-83
2022/08/08 03:42:57;;;;;;;23.92;18.92;;;;;;;;;;4965759;28;20030;-83
2022/08/08 03:45:24;;;;;;;21.98;17.85;;;;;;;;;;4963885;28;20034;-83
2022/08/08 03:48:09;;;;;;;25.13;18.77;;;;;;;;;;4965167;28;20045;-83
2022/08/08 03:50:55;;;;;;;34.35;19.95;;;;;;;;;;5053045;28;20035;-83
2022/08/08 03:53:21;;;;;;;28.10;19.58;;;;;;;;;;5051673;28;20809;-84
2022/08/08 03:55:48;;;;;;;23.42;17.98;;;;;;;;;;4970167;28;20126;-83
2022/08/08 03:58:21;;;;;;;28.02;19.58;;;;;;;;;;5051232;28;20027;-82
2022/08/08 04:00:55;;;;;;;30.67;20.30;;;;;;;;;;5051332;28;20119;-82
2022/08/08 04:03:22;;;;;;;29.95;21.73;;;;;;;;;;4949006;28;20056;-82
2022/08/08 04:05:48;;;;;;;38.05;23.10;;;;;;;;;;4933290;28;20043;-83
2022/08/08 04:08:22;;;;;;;44.22;26.08;;;;;;;;;;4926683;28;20046;-82
2022/08/08 04:10:49;;;;;;;41.30;25.63;;;;;;;;;;4945251;28;20037;-82
2022/08/08 04:13:15;;;;;;;39.33;24.38;;;;;;;;;;4948300;28;20051;-82
2022/08/08 04:15:42;;;;;;;34.03;22.60;;;;;;;;;;4945581;28;20028;-87
2022/08/08 04:18:08;;;;;;;28.45;19.90;;;;;;;;;;4949132;28;20023;-82
2022/08/08 04:20:34;;;;;;;26.98;19.55;;;;;;;;;;4946535;28;20046;-82
2022/08/08 04:23:00;;;;;;;29.08;20.38;;;;;;;;;;4934894;28;20049;-82
2022/08/08 04:25:26;;;;;;;30.55;21.45;;;;;;;;;;4945536;28;20031;-82
2022/08/08 04:27:52;;;;;;;36.92;22.60;;;;;;;;;;4933434;28;20688;-83
2022/08/08 04:30:18;;;;;;;23.77;17.25;;;;;;;;;;4918000;28;20070;-82
2022/08/08 04:32:44;;;;;;;25.83;17.85;;;;;;;;;;4932549;28;20036;-83
2022/08/08 04:35:10;;;;;;;18.20;14.70;;;;;;;;;;4945692;28;20044;-82
2022/08/08 04:37:36;;;;;;;16.08;12.40;;;;;;;;;;4933325;28;20043;-82
2022/08/08 04:40:03;;;;;;;16.30;13.02;;;;;;;;;;4944526;28;20031;-82
2022/08/08 04:42:32;;;;;;;14.68;12.02;;;;;;;;;;4915827;28;20066;-82
2022/08/08 04:44:58;;;;;;;15.52;11.40;;;;;;;;;;4936653;28;20055;-82
2022/08/08 04:47:24;;;;;;;15.35;10.32;;;;;;;;;;4950250;28;20031;-82
2022/08/08 04:49:50;;;;;;;11.90;8.52;;;;;;;;;;4946231;28;20153;-83
2022/08/08 04:52:17;;;;;;;8.18;6.57;;;;;;;;;;4947747;28;20034;-83
2022/08/08 04:54:43;;;;;;;14.07;7.80;;;;;;;;;;4933743;28;20083;-83
2022/08/08 04:57:09;;;;;;;15.45;7.65;;;;;;;;;;4951114;28;20032;-82
2022/08/08 04:59:36;;;;;;;21.88;8.40;;;;;;;;;;4942711;28;20055;-82
2022/08/08 05:02:02;;;;;;;8.98;6.25;;;;;;;;;;4978901;28;20609;-83
2022/08/08 05:04:28;;;;;;;9.15;5.80;;;;;;;;;;5052939;28;20066;-83
2022/08/08 05:06:54;;;;;;;10.10;6.90;;;;;;;;;;5048812;28;20036;-83
2022/08/08 05:09:20;;;;;;;10.15;7.20;;;;;;;;;;5057165;28;20033;-83
2022/08/08 05:11:46;;;;;;;18.85;10.70;;;;;;;;;;5047536;28;20043;-83
2022/08/08 05:14:12;;;;;;;9.38;5.50;;;;;;;;;;5048710;28;20109;-83
2022/08/08 05:16:38;;;;;;;9.55;7.30;;;;;;;;;;5048342;28;20056;-83
2022/08/08 05:19:10;;;;;;;14.10;5.82;;;;;;;;;;5044368;28;20029;-83
2022/08/08 05:21:36;;;;;;;11.98;5.65;;;;;;;;;;5046797;28;20397;-83
2022/08/08 05:24:03;;;;;;;9.80;4.82;;;;;;;;;;5046129;28;20036;-82
2022/08/08 05:26:29;;;;;;;15.65;5.75;;;;;;;;;;5042990;28;20130;-82
2022/08/08 05:28:55;;;;;;;9.63;4.57;;;;;;;;;;5046862;28;20081;-83
2022/08/08 05:31:21;;;;;;;6.38;4.80;;;;;;;;;;5043565;28;20066;-83
2022/08/08 05:33:47;;;;;;;7.63;5.05;;;;;;;;;;5049644;28;20039;-83
2022/08/08 05:36:15;;;;;;;26.52;7.57;;;;;;;;;;5045968;28;20032;-92
2022/08/08 05:38:49;;;;;;;9.20;4.13;;;;;;;;;;5034788;28;20097;-80
2022/08/08 05:41:18;;;;;;;4.47;3.30;;;;;;;;;;5047733;28;20037;-80
2022/08/08 05:43:46;;;;;;;4.72;3.10;;;;;;;;;;5046726;28;20032;-78
2022/08/08 05:46:13;;;;;;;7.82;3.40;;;;;;;;;;5048888;28;20139;-79
2022/08/08 05:48:39;;;;;;;4.63;2.80;;;;;;;;;;5046611;28;20087;-78
2022/08/08 05:51:05;;;;;;;7.85;3.90;;;;;;;;;;5047085;28;20036;-77
2022/08/08 05:53:32;;;;;;;4.97;3.05;;;;;;;;;;5047195;28;20872;-78
2022/08/08 05:55:58;;;;;;;7.15;3.42;;;;;;;;;;5047222;28;20025;-78
2022/08/08 05:58:27;;;;;;;8.43;3.25;;;;;;;;;;5027629;28;21425;-79
2022/08/08 06:00:55;;;;;;;5.05;3.03;;;;;;;;;;5040530;28;20548;-78
2022/08/08 06:03:22;;;;;;;10.55;3.30;;;;;;;;;;5042024;28;20061;-78
2022/08/08 06:05:53;;;;;;;9.38;3.58;;;;;;;;;;5044154;28;20056;-77
2022/08/08 06:08:23;;;;;;;5.63;3.63;;;;;;;;;;5044021;28;20540;-77
2022/08/08 06:10:50;;;;;;;9.20;4.38;;;;;;;;;;5042521;28;20025;-78
2022/08/08 06:13:17;;;;;;;6.00;3.80;;;;;;;;;;5040314;28;20032;-78
2022/08/08 06:15:46;;;;;;;7.03;4.40;;;;;;;;;;5039571;28;20410;-77
2022/08/08 06:18:13;;;;;;;6.57;4.10;;;;;;;;;;5043571;28;20024;-79
2022/08/08 06:20:40;;;;;;;9.07;3.25;;;;;;;;;;5042222;28;20398;-79
2022/08/08 06:23:06;;;;;;;9.48;3.70;;;;;;;;;;5046782;28;20128;-78
2022/08/08 06:25:35;;;;;;;10.90;3.20;;;;;;;;;;5044003;28;20174;-77
2022/08/08 06:28:03;;;;;;;13.05;2.80;;;;;;;;;;5044562;28;21207;-77
2022/08/08 06:30:32;;;;;;;7.57;2.78;;;;;;;;;;5044850;28;20036;-76
2022/08/08 06:32:58;;;;;;;6.72;2.50;;;;;;;;;;5042681;28;20044;-77
2022/08/08 06:35:25;;;;;;;10.68;2.60;;;;;;;;;;5043719;28;20025;-77
2022/08/08 06:37:53;;;;;;;3.97;1.65;;;;;;;;;;5045065;28;20028;-76
2022/08/08 06:40:20;;;;;;;4.30;2.10;;;;;;;;;;5044368;28;20991;-77
2022/08/08 06:42:47;;;;;;;7.80;2.08;;;;;;;;;;5046586;28;20031;-76
2022/08/08 06:45:13;;;;;;;8.85;2.30;;;;;;;;;;5047759;28;20040;-77
2022/08/08 06:47:40;;;;;;;7.82;2.20;;;;;;;;;;5047426;28;20021;-79
2022/08/08 06:50:06;;;;;;;9.50;2.28;;;;;;;;;;5047626;28;20045;-79
2022/08/08 06:52:32;;;;;;;6.53;2.17;;;;;;;;;;5048414;28;20045;-78
2022/08/08 06:55:00;;;;;;;8.57;2.35;;;;;;;;;;5045589;28;20041;-78
2022/08/08 06:57:26;;;;;;;4.88;1.80;;;;;;;;;;5045270;28;20025;-79
2022/08/08 06:59:55;;;;;;;12.20;1.95;;;;;;;;;;5046855;28;20017;-78
2022/08/08 07:02:25;;;;;;;8.70;2.22;;;;;;;;;;5009019;28;20047;-77
2022/08/08 07:04:51;;;;;;;8.02;1.95;;;;;;;;;;4963654;28;20034;-78
2022/08/08 07:07:22;;;;;;;17.20;2.72;;;;;;;;;;5031631;28;20045;-80
2022/08/08 07:10:03;;;;;;;9.00;2.28;;;;;;;;;;4964310;28;20042;-79
2022/08/08 07:12:38;;;;;;;10.60;1.80;;;;;;;;;;4965083;28;20038;-78
2022/08/08 07:15:06;;;;;;;6.10;1.92;;;;;;;;;;4963936;28;20155;-77
2022/08/08 07:17:36;;;;;;;7.53;2.00;;;;;;;;;;4963459;28;20062;-74
2022/08/08 07:20:04;;;;;;;12.15;2.55;;;;;;;;;;4962145;28;20356;-74
2022/08/08 07:22:36;;;;;;;6.63;2.22;;;;;;;;;;4964379;28;20407;-74
2022/08/08 07:25:03;;;;;;;15.20;3.47;;;;;;;;;;4962040;28;20035;-74
2022/08/08 07:27:35;;;;;;;5.32;2.13;;;;;;;;;;4960126;28;20061;-75
2022/08/08 07:30:01;;;;;;;9.75;3.20;;;;;;;;;;4961854;28;20153;-75
2022/08/08 07:32:28;;;;;;;8.30;3.17;;;;;;;;;;4963146;28;20039;-74
2022/08/08 07:34:54;;;;;;;11.15;2.88;;;;;;;;;;5026886;28;20039;-74
2022/08/08 07:37:22;;;;;;;5.00;2.70;;;;;;;;;;4962112;28;20019;-75
2022/08/08 07:39:48;;;;;;;7.55;2.90;;;;;;;;;;4962698;28;20023;-74
2022/08/08 07:42:16;;;;;;;7.70;3.30;;;;;;;;;;5030385;28;20054;-75
2022/08/08 07:44:42;;;;;;;10.95;2.50;;;;;;;;;;5027961;28;20487;-74
2022/08/08 07:47:08;;;;;;;13.77;3.20;;;;;;;;;;5029527;28;20034;-75
2022/08/08 07:49:35;;;;;;;14.88;3.10;;;;;;;;;;4960205;28;20503;-74
2022/08/08 07:52:02;;;;;;;13.07;3.13;;;;;;;;;;4965279;28;20035;-73
2022/08/08 07:54:36;;;;;;;9.10;3.58;;;;;;;;;;5028255;28;20035;-75
2022/08/08 07:57:04;;;;;;;6.22;2.45;;;;;;;;;;4962855;28;20030;-74
2022/08/08 07:59:36;;;;;;;6.85;2.85;;;;;;;;;;5045166;28;20469;-75
2022/08/08 08:02:05;;;;;;;14.32;2.78;;;;;;;;;;4965596;28;20058;-74
2022/08/08 08:04:35;;;;;;;8.65;2.75;;;;;;;;;;4963350;28;20035;-75
2022/08/08 08:07:02;;;;;;;6.28;2.10;;;;;;;;;;4966491;28;20046;-75
2022/08/08 08:09:33;;;;;;;7.20;2.10;;;;;;;;;;4965996;28;20034;-74
2022/08/08 08:11:59;;;;;;;;;;;;;;;;;;4968358;28;20076;-74
2022/08/08 08:14:29;;;;;;;8.95;2.53;;;;;;;;;;5032096;28;20375;-74
2022/08/08 08:16:55;;;;;;;6.35;2.28;;;;;;;;;;4966927;28;20031;-74
2022/08/08 08:19:23;;;;;;;9.10;2.47;;;;;;;;;;4963364;28;20027;-75
2022/08/08 08:21:49;;;;;;;11.25;2.80;;;;;;;;;;4967663;28;20031;-75
2022/08/08 08:24:15;;;;;;;6.50;2.70;;;;;;;;;;4977558;28;20085;-75
2022/08/08 08:26:41;;;;;;;9.10;2.45;;;;;;;;;;4967558;28;20101;-76
2022/08/08 08:29:08;;;;;;;8.80;2.47;;;;;;;;;;4968907;28;20063;-75
2022/08/08 08:31:34;;;;;;;12.27;2.88;;;;;;;;;;5033761;28;20039;-75
2022/08/08 08:34:01;;;;;;;11.77;2.30;;;;;;;;;;5032724;28;20049;-74
2022/08/08 08:36:27;;;;;;;6.65;2.47;;;;;;;;;;4965948;28;20474;-76
2022/08/08 08:38:53;;;;;;;7.38;2.33;;;;;;;;;;4966245;28;20553;-75
2022/08/08 08:41:19;;;;;;;6.13;1.75;;;;;;;;;;5032838;28;20038;-74
2022/08/08 08:43:47;;;;;;;10.15;2.17;;;;;;;;;;4963911;28;20022;-76
2022/08/08 08:46:13;;;;;;;3.63;1.63;;;;;;;;;;5031598;28;20054;-75
2022/08/08 08:48:43;;;;;;;9.52;2.00;;;;;;;;;;4967253;28;20042;-75
2022/08/08 08:51:13;;;;;;;7.68;2.17;;;;;;;;;;4966589;28;20034;-75
2022/08/08 08:53:43;;;;;;;7.78;2.17;;;;;;;;;;4965749;28;20103;-76
2022/08/08 08:56:10;;;;;;;6.38;1.50;;;;;;;;;;4965733;28;20039;-76
2022/08/08 08:58:43;;;;;;;5.50;1.95;;;;;;;;;;4965163;28;20050;-75
2022/08/08 09:01:10;;;;;;;6.07;1.83;;;;;;;;;;4965933;28;20039;-76
2022/08/08 09:03:38;;;;;;;5.13;1.70;;;;;;;;;;4966858;28;20458;-76
2022/08/08 09:06:05;;;;;;;8.05;2.28;;;;;;;;;;4966327;28;20113;-76
2022/08/08 09:08:32;;;;;;;9.43;2.38;;;;;;;;;;4967817;28;20038;-75
2022/08/08 09:10:58;;;;;;;10.82;2.42;;;;;;;;;;4949393;28;20031;-75
2022/08/08 09:13:25;;;;;;;6.65;2.00;;;;;;;;;;4947529;28;20050;-75
2022/08/08 09:15:51;;;;;;;10.00;2.20;;;;;;;;;;4967180;28;20039;-75
2022/08/08 09:18:17;;;;;;;5.15;1.90;;;;;;;;;;4948601;28;20057;-75
2022/08/08 09:20:47;;;;;;;11.68;2.95;;;;;;;;;;4966781;28;20396;-77
2022/08/08 09:23:13;;;;;;;9.90;2.30;;;;;;;;;;4948661;28;20031;-75
2022/08/08 09:25:43;;;;;;;11.23;2.40;;;;;;;;;;4964629;28;20031;-76
2022/08/08 09:28:09;;;;;;;11.48;2.47;;;;;;;;;;4967001;28;20061;-76
2022/08/08 09:30:37;;;;;;;7.07;2.67;;;;;;;;;;4946592;28;20124;-74
2022/08/08 09:33:03;;;;;;;10.52;2.50;;;;;;;;;;4967309;28;20026;-74
2022/08/08 09:35:31;;;;;;;4.82;2.40;;;;;;;;;;4961663;28;20045;-75
2022/08/08 09:38:01;;;;;;;6.43;1.85;;;;;;;;;;4964377;28;20029;-74
2022/08/08 09:40:28;;;;;;;9.10;1.85;;;;;;;;;;4965717;28;20073;-75
2022/08/08 09:43:00;;;;;;;5.25;1.88;;;;;;;;;;4964983;28;20023;-75
2022/08/08 09:45:37;;;;;;;8.85;2.10;;;;;;;;;;4963552;28;20430;-75
2022/08/08 09:48:03;;;;;;;8.48;1.55;;;;;;;;;;4966556;28;20038;-75
2022/08/08 09:50:30;;;;;;;5.22;2.03;;;;;;;;;;4963635;28;20443;-74
2022/08/08 09:52:56;;;;;;;5.03;1.52;;;;;;;;;;4948456;28;20042;-74
2022/08/08 09:55:24;;;;;;;4.55;1.65;;;;;;;;;;4961451;28;20088;-75
2022/08/08 09:57:51;;;;;;;8.38;1.80;;;;;;;;;;4966820;28;20956;-74
2022/08/08 10:00:18;;;;;;;8.75;2.28;;;;;;;;;;4967594;28;20047;-74
2022/08/08 10:02:48;;;;;;;7.22;1.98;;;;;;;;;;4965149;28;20499;-74
2022/08/08 10:05:23;;;;;;;8.02;2.00;;;;;;;;;;5028642;28;20046;-75
2022/08/08 10:07:52;;;;;;;5.47;1.80;;;;;;;;;;4962469;28;20033;-74
2022/08/08 10:10:25;;;;;;;4.40;1.67;;;;;;;;;;4962948;28;20392;-75
2022/08/08 10:12:51;;;;;;;5.45;1.42;;;;;;;;;;5032956;28;20034;-75
2022/08/08 10:15:17;;;;;;;15.23;2.10;;;;;;;;;;5029989;28;20035;-74
2022/08/08 10:17:47;;;;;;;4.43;1.40;;;;;;;;;;4963429;28;20096;-74
2022/08/08 10:20:13;;;;;;;7.75;1.92;;;;;;;;;;5029753;28;20468;-77
2022/08/08 10:22:46;;;;;;;8.45;2.13;;;;;;;;;;4966471;28;20035;-77
2022/08/08 10:25:14;;;;;;;8.63;2.00;;;;;;;;;;4962274;28;20114;-77
2022/08/08 10:27:42;;;;;;;5.03;1.70;;;;;;;;;;4976179;28;20362;-77
2022/08/08 10:30:09;;;;;;;5.95;1.60;;;;;;;;;;4970046;28;20845;-77
2022/08/08 10:32:41;;;;;;;5.20;1.60;;;;;;;;;;4962124;28;20526;-77
2022/08/08 10:35:12;;;;;;;5.00;1.48;;;;;;;;;;4959926;28;20051;-77
2022/08/08 10:37:41;;;;;;;5.05;1.58;;;;;;;;;;4960872;28;20058;-77
2022/08/08 10:40:14;;;;;;;7.75;1.50;;;;;;;;;;4958606;28;20043;-77
2022/08/08 10:42:41;;;;;;;6.60;1.50;;;;;;;;;;4961957;28;20031;-80
2022/08/08 10:45:08;;;;;;;6.18;1.35;;;;;;;;;;4961744;28;20027;-77
2022/08/08 10:47:34;;;;;;;7.30;1.65;;;;;;;;;;5021809;28;20039;-77
2022/08/08 10:50:01;;;;;;;3.72;1.30;;;;;;;;;;4961102;28;20050;-77
2022/08/08 10:52:27;;;;;;;4.68;1.27;;;;;;;;;;4964278;28;20065;-77
2022/08/08 10:54:58;;;;;;;6.38;1.40;;;;;;;;;;5030669;28;20035;-77
2022/08/08 10:57:24;;;;;;;2.78;1.40;;;;;;;;;;5030008;28;20031;-77
2022/08/08 10:59:53;;;;;;;4.72;1.65;;;;;;;;;;5028651;28;20577;-77
2022/08/08 11:02:23;;;;;;;6.03;1.30;;;;;;;;;;4971357;28;20435;-77
2022/08/08 11:04:49;;;;;;;4.78;1.27;;;;;;;;;;5056434;28;20546;-77
2022/08/08 11:07:32;;;;;;;3.20;1.40;;;;;;;;;;4962399;28;20046;-77
2022/08/08 11:10:02;;;;;;;4.15;1.30;;;;;;;;;;5029926;28;20030;-77
2022/08/08 11:12:28;;;;;;;6.47;1.38;;;;;;;;;;5031540;28;20031;-77
2022/08/08 11:14:59;;;;;;;5.03;1.10;;;;;;;;;;4961069;28;20071;-77
2022/08/08 11:17:27;;;;;;;4.13;1.10;;;;;;;;;;4964501;28;20487;-77
2022/08/08 11:19:53;;;;;;;7.55;1.30;;;;;;;;;;4962613;28;20037;-77
2022/08/08 11:22:28;;;;;;;3.53;1.30;;;;;;;;;;5044153;28;20395;-77
2022/08/08 11:24:57;;;;;;;4.80;1.10;;;;;;;;;;4961976;28;20089;-77
2022/08/08 11:27:24;;;;;;;3.70;1.17;;;;;;;;;;4961637;28;20033;-77
2022/08/08 11:29:51;;;;;;;1.88;0.98;;;;;;;;;;4960113;28;20034;-77
2022/08/08 11:32:20;;;;;;;5.57;1.08;;;;;;;;;;4959817;28;20027;-78
2022/08/08 11:34:49;;;;;;;5.43;1.50;;;;;;;;;;4960886;28;20457;-77
2022/08/08 11:37:16;;;;;;;4.38;1.30;;;;;;;;;;4962498;28;20019;-77
2022/08/08 11:39:42;;;;;;;5.85;1.48;;;;;;;;;;4963965;28;20035;-80
2022/08/08 11:42:08;;;;;;;5.70;1.10;;;;;;;;;;5051422;28;20135;-78
2022/08/08 11:44:35;;;;;;;6.20;1.10;;;;;;;;;;4967266;28;20069;-78
2022/08/08 11:47:01;;;;;;;3.38;1.10;;;;;;;;;;5035248;28;20035;-78
2022/08/08 11:49:27;;;;;;;8.48;1.40;;;;;;;;;;4967571;28;20081;-77
2022/08/08 11:51:54;;;;;;;4.40;1.50;;;;;;;;;;5034509;28;20094;-78
2022/08/08 11:54:33;;;;;;;3.30;1.23;;;;;;;;;;4968321;28;20042;-78
2022/08/08 11:57:13;;;;;;;3.45;1.20;;;;;;;;;;5035350;28;20049;-78
2022/08/08 11:59:51;;;;;;;4.60;1.15;;;;;;;;;;5035280;28;20023;-78
2022/08/08 12:02:17;;;;;;;3.80;1.20;;;;;;;;;;4968459;28;20035;-77
2022/08/08 12:04:43;;;;;;;3.08;1.00;;;;;;;;;;4967939;28;20042;-78
2022/08/08 12:07:09;;;;;;;7.10;1.35;;;;;;;;;;4967036;28;20411;-78
2022/08/08 12:09:35;;;;;;;7.45;1.42;;;;;;;;;;4968251;28;20030;-78
2022/08/08 12:12:01;;;;;;;3.63;1.13;;;;;;;;;;4982136;28;20145;-78
2022/08/08 12:14:28;;;;;;;3.65;1.30;;;;;;;;;;4967068;28;20062;-78
2022/08/08 12:16:54;;;;;;;5.28;1.30;;;;;;;;;;5050706;28;20407;-78
2022/08/08 12:19:21;;;;;;;6.35;1.77;;;;;;;;;;5066835;28;20031;-78
2022/08/08 12:21:47;;;;;;;6.90;1.42;;;;;;;;;;4968109;28;20039;-78
2022/08/08 12:24:14;;;;;;;6.82;1.50;;;;;;;;;;4965178;28;20039;-78
2022/08/08 12:26:48;;;;;;;3.30;1.20;;;;;;;;;;4981747;28;20022;-78
2022/08/08 12:29:23;;;;;;;6.10;1.02;;;;;;;;;;4969785;28;20039;-78
2022/08/08 12:32:02;;;;;;;8.32;1.50;;;;;;;;;;4968540;28;20121;-79
2022/08/08 12:34:50;;;;;;;4.03;1.20;;;;;;;;;;5033365;28;20118;-79
2022/08/08 12:37:20;;;;;;;4.70;1.10;;;;;;;;;;4965516;28;20073;-78
2022/08/08 12:39:46;;;;;;;;;;;;;;;;;;4966560;28;20023;-79
2022/08/08 12:42:12;;;;;;;6.55;1.30;;;;;;;;;;4968277;28;19959;-78
2022/08/08 12:44:40;;;;;;;7.00;0.98;;;;;;;;;;4965642;28;20374;-78
2022/08/08 12:47:07;;;;;;;9.52;1.45;;;;;;;;;;4968346;28;20364;-78
2022/08/08 12:49:34;;;;;;;3.75;1.00;;;;;;;;;;5035158;28;20033;-78
2022/08/08 12:52:00;;;;;;;3.20;0.95;;;;;;;;;;4967708;28;20042;-78
2022/08/08 12:54:26;;;;;;;3.92;1.13;;;;;;;;;;4966767;28;20045;-78
2022/08/08 12:56:53;;;;;;;4.25;1.00;;;;;;;;;;4968329;28;20500;-78
2022/08/08 12:59:26;;;;;;;4.78;1.55;;;;;;;;;;4967940;28;20034;-78
2022/08/08 13:01:53;;;;;;;6.95;1.45;;;;;;;;;;5034532;28;20031;-78
2022/08/08 13:04:21;;;;;;;6.88;1.40;;;;;;;;;;5033767;28;20039;-78
2022/08/08 13:06:54;;;;;;;14.73;1.27;;;;;;;;;;4967639;28;20027;-78
2022/08/08 13:09:40;;;;;;;3.17;0.93;;;;;;;;;;5037375;28;20031;-78
2022/08/08 13:12:12;;;;;;;3.47;1.15;;;;;;;;;;4969770;28;20538;-78
2022/08/08 13:14:49;;;;;;;2.40;0.90;;;;;;;;;;4969613;28;20113;-78
2022/08/08 13:17:15;;;;;;;8.23;1.20;;;;;;;;;;4969858;28;20027;-78
2022/08/08 13:19:42;;;;;;;2.38;0.80;;;;;;;;;;4970135;28;20035;-78
2022/08/08 13:22:08;;;;;;;2.50;0.90;;;;;;;;;;4969665;28;20027;-78
2022/08/08 13:24:39;;;;;;;3.70;0.95;;;;;;;;;;5069747;28;20456;-78
2022/08/08 13:27:04;;;;;;;;;;;;;;;;;;5023162;28;20511;-78
2022/08/08 13:29:31;;;;;;;4.30;1.10;;;;;;;;;;5070453;28;19906;-78
2022/08/08 13:32:00;;;;;;;3.85;1.13;;;;;;;;;;4969837;28;20018;-78
2022/08/08 13:34:26;;;;;;;3.87;1.00;;;;;;;;;;4969957;28;20054;-78
2022/08/08 13:36:53;;;;;;;2.65;1.08;;;;;;;;;;4969760;28;20089;-78
2022/08/08 13:39:20;;;;;;;8.35;1.20;;;;;;;;;;5032838;28;20023;-78
2022/08/08 13:41:46;;;;;;;3.72;1.50;;;;;;;;;;4967147;28;20399;-80
2022/08/08 13:44:13;;;;;;;5.53;1.40;;;;;;;;;;4966698;28;20124;-78
2022/08/08 13:46:39;;;;;;;4.88;1.10;;;;;;;;;;5050795;28;20176;-78
2022/08/08 13:49:29;;;;;;;10.02;1.20;;;;;;;;;;4966137;28;20110;-78
2022/08/08 13:52:04;;;;;;;4.60;1.25;;;;;;;;;;4965073;28;20026;-79
2022/08/08 13:54:34;;;;;;;4.72;1.00;;;;;;;;;;4967194;28;20031;-77
2022/08/08 13:57:00;;;;;;;6.70;1.15;;;;;;;;;;4963338;28;20119;-78
2022/08/08 13:59:34;;;;;;;4.85;1.50;;;;;;;;;;4964007;28;20528;-78
2022/08/08 14:02:01;;;;;;;4.13;1.20;;;;;;;;;;4963130;28;20031;-78
2022/08/08 14:04:27;;;;;;;6.13;1.35;;;;;;;;;;4949162;28;20404;-78
2022/08/08 14:07:00;;;;;;;4.13;1.45;;;;;;;;;;4967625;28;20096;-78
2022/08/08 14:09:30;;;;;;;4.55;1.13;;;;;;;;;;4949484;28;20038;-78
2022/08/08 14:11:58;;;;;;;4.40;1.33;;;;;;;;;;4971894;28;20191;-78
2022/08/08 14:14:35;;;;;;;7.80;1.30;;;;;;;;;;4965756;28;20080;-78
2022/08/08 14:17:05;;;;;;;4.43;1.15;;;;;;;;;;4964966;28;20034;-77
2022/08/08 14:19:34;;;;;;;3.25;1.35;;;;;;;;;;4963269;28;20092;-78
2022/08/08 14:22:00;;;;;;;4.72;1.20;;;;;;;;;;4966081;28;20031;-78
2022/08/08 14:24:33;;;;;;;6.70;1.75;;;;;;;;;;4952538;28;20085;-78
2022/08/08 14:26:59;;;;;;;8.13;1.35;;;;;;;;;;4950793;28;20037;-78
2022/08/08 14:29:26;;;;;;;3.72;1.00;;;;;;;;;;4962034;28;20027;-78
2022/08/08 14:31:52;;;;;;;4.22;1.20;;;;;;;;;;4950789;28;20407;-78
2022/08/08 14:34:18;;;;;;;3.22;1.20;;;;;;;;;;4979112;28;20039;-78
2022/08/08 14:36:47;;;;;;;3.42;1.17;;;;;;;;;;4967742;28;20053;-77
2022/08/08 14:39:17;;;;;;;5.80;1.40;;;;;;;;;;4945878;28;20204;-73
2022/08/08 14:41:44;;;;;;;4.35;1.45;;;;;;;;;;4949363;28;20027;-74
2022/08/08 14:44:10;;;;;;;4.75;1.23;;;;;;;;;;4959819;28;20035;-75
2022/08/08 14:46:37;;;;;;;6.25;1.02;;;;;;;;;;4965890;28;20080;-75
2022/08/08 14:49:11;;;;;;;3.63;1.10;;;;;;;;;;4960847;28;20066;-76
2022/08/08 14:51:39;;;;;;;5.55;1.50;;;;;;;;;;4962698;28;20038;-76
2022/08/08 14:54:05;;;;;;;4.40;1.20;;;;;;;;;;4965055;28;20405;-75